sensor_id;sensor_type;location;lat;lon;timestamp;P1;durP1;ratioP1;P2;durP2;ratioP2
13079;SDS011;6606;49.154;9.280;2023-03-02T00:02:14;35.27;;;22.20;;
13079;SDS011;6606;49.154;9.280;2023-03-02T00:05:04;32.17;;;21.90;;
13079;SDS011;6606;49.154;9.280;2023-03-02T00:07:48;32.53;;;21.40;;
13079;SDS011;6606;49.154;9.280;2023-03-02T00:10:31;34.10;;;22.60;;
13079;SDS011;6606;49.154;9.280;2023-03-02T00:13:14;30.93;;;21.97;;
13079;SDS011;6606;49.154;9.280;2023-03-02T00:15:57;31.43;;;21.33;;
13079;SDS011;6606;49.154;9.280;2023-03-02T00:18:42;31.37;;;20.97;;
13079;SDS011;6606;49.154;9.280;2023-03-02T00:21:25;32.27;;;22.27;;
13079;SDS011;6606;49.154;9.280;2023-03-02T00:24:11;31.93;;;20.60;;
13079;SDS011;6606;49.154;9.280;2023-03-02T00:26:57;34.63;;;22.43;;
13079;SDS011;6606;49.154;9.280;2023-03-02T00:29:40;32.80;;;22.63;;
13079;SDS011;6606;49.154;9.280;2023-03-02T00:32:23;33.80;;;22.03;;
13079;SDS011;6606;49.154;9.280;2023-03-02T00:35:17;32.27;;;21.47;;
13079;SDS011;6606;49.154;9.280;2023-03-02T00:38:00;35.43;;;22.17;;
13079;SDS011;6606;49.154;9.280;2023-03-02T00:40:43;34.53;;;22.80;;
13079;SDS011;6606;49.154;9.280;2023-03-02T00:43:28;32.60;;;21.87;;
13079;SDS011;6606;49.154;9.280;2023-03-02T00:46:13;33.63;;;22.50;;
13079;SDS011;6606;49.154;9.280;2023-03-02T00:48:58;34.57;;;22.63;;
13079;SDS011;6606;49.154;9.280;2023-03-02T00:51:43;35.93;;;23.00;;
13079;SDS011;6606;49.154;9.280;2023-03-02T00:54:26;34.40;;;22.37;;
13079;SDS011;6606;49.154;9.280;2023-03-02T00:57:10;35.90;;;21.83;;
13079;SDS011;6606;49.154;9.280;2023-03-02T00:59:53;32.07;;;20.87;;
13079;SDS011;6606;49.154;9.280;2023-03-02T01:02:45;34.90;;;21.47;;
13079;SDS011;6606;49.154;9.280;2023-03-02T01:05:30;37.80;;;22.23;;
13079;SDS011;6606;49.154;9.280;2023-03-02T01:08:19;34.10;;;22.80;;
13079;SDS011;6606;49.154;9.280;2023-03-02T01:11:01;33.23;;;21.77;;
13079;SDS011;6606;49.154;9.280;2023-03-02T01:13:46;38.70;;;23.53;;
13079;SDS011;6606;49.154;9.280;2023-03-02T01:16:32;34.80;;;22.03;;
13079;SDS011;6606;49.154;9.280;2023-03-02T01:19:14;34.23;;;23.47;;
13079;SDS011;6606;49.154;9.280;2023-03-02T01:21:57;38.03;;;24.27;;
13079;SDS011;6606;49.154;9.280;2023-03-02T01:24:42;39.57;;;24.53;;
13079;SDS011;6606;49.154;9.280;2023-03-02T01:27:25;39.77;;;23.67;;
13079;SDS011;6606;49.154;9.280;2023-03-02T01:30:09;36.90;;;23.77;;
13079;SDS011;6606;49.154;9.280;2023-03-02T01:32:53;37.73;;;24.33;;
13079;SDS011;6606;49.154;9.280;2023-03-02T01:35:36;33.37;;;21.77;;
13079;SDS011;6606;49.154;9.280;2023-03-02T01:38:19;37.57;;;24.50;;
13079;SDS011;6606;49.154;9.280;2023-03-02T01:41:04;37.10;;;23.30;;
13079;SDS011;6606;49.154;9.280;2023-03-02T01:43:47;37.43;;;24.20;;
13079;SDS011;6606;49.154;9.280;2023-03-02T01:46:30;32.43;;;21.53;;
13079;SDS011;6606;49.154;9.280;2023-03-02T01:49:15;40.20;;;25.50;;
13079;SDS011;6606;49.154;9.280;2023-03-02T01:52:08;36.53;;;22.50;;
13079;SDS011;6606;49.154;9.280;2023-03-02T01:54:51;36.50;;;24.53;;
13079;SDS011;6606;49.154;9.280;2023-03-02T01:57:39;38.00;;;23.47;;
13079;SDS011;6606;49.154;9.280;2023-03-02T02:00:25;36.53;;;23.40;;
13079;SDS011;6606;49.154;9.280;2023-03-02T02:03:13;38.07;;;23.20;;
13079;SDS011;6606;49.154;9.280;2023-03-02T02:06:03;39.50;;;24.23;;
13079;SDS011;6606;49.154;9.280;2023-03-02T02:08:57;39.83;;;25.03;;
13079;SDS011;6606;49.154;9.280;2023-03-02T02:11:42;36.90;;;23.83;;
13079;SDS011;6606;49.154;9.280;2023-03-02T02:14:26;38.40;;;25.23;;
13079;SDS011;6606;49.154;9.280;2023-03-02T02:17:10;38.20;;;23.87;;
13079;SDS011;6606;49.154;9.280;2023-03-02T02:19:55;37.67;;;23.43;;
13079;SDS011;6606;49.154;9.280;2023-03-02T02:22:49;38.43;;;24.23;;
13079;SDS011;6606;49.154;9.280;2023-03-02T02:25:44;36.60;;;23.97;;
13079;SDS011;6606;49.154;9.280;2023-03-02T02:28:39;38.20;;;24.87;;
13079;SDS011;6606;49.154;9.280;2023-03-02T02:31:29;37.03;;;22.97;;
13079;SDS011;6606;49.154;9.280;2023-03-02T02:34:18;38.60;;;24.47;;
13079;SDS011;6606;49.154;9.280;2023-03-02T02:37:06;37.30;;;23.90;;
13079;SDS011;6606;49.154;9.280;2023-03-02T02:39:52;38.90;;;24.50;;
13079;SDS011;6606;49.154;9.280;2023-03-02T02:42:39;36.73;;;23.10;;
13079;SDS011;6606;49.154;9.280;2023-03-02T02:45:25;40.93;;;25.33;;
13079;SDS011;6606;49.154;9.280;2023-03-02T02:48:09;40.23;;;23.77;;
13079;SDS011;6606;49.154;9.280;2023-03-02T02:50:57;39.20;;;22.87;;
13079;SDS011;6606;49.154;9.280;2023-03-02T02:53:43;36.67;;;24.53;;
13079;SDS011;6606;49.154;9.280;2023-03-02T02:56:31;35.40;;;22.53;;
13079;SDS011;6606;49.154;9.280;2023-03-02T02:59:20;35.97;;;23.53;;
13079;SDS011;6606;49.154;9.280;2023-03-02T03:02:11;35.23;;;22.30;;
13079;SDS011;6606;49.154;9.280;2023-03-02T03:04:59;35.90;;;23.07;;
13079;SDS011;6606;49.154;9.280;2023-03-02T03:07:48;36.97;;;23.87;;
13079;SDS011;6606;49.154;9.280;2023-03-02T03:10:32;43.17;;;25.60;;
13079;SDS011;6606;49.154;9.280;2023-03-02T03:13:19;36.20;;;23.43;;
13079;SDS011;6606;49.154;9.280;2023-03-02T03:16:08;40.77;;;25.03;;
13079;SDS011;6606;49.154;9.280;2023-03-02T03:18:56;40.37;;;24.33;;
13079;SDS011;6606;49.154;9.280;2023-03-02T03:21:45;38.17;;;24.37;;
13079;SDS011;6606;49.154;9.280;2023-03-02T03:24:32;40.07;;;25.10;;
13079;SDS011;6606;49.154;9.280;2023-03-02T03:27:17;38.83;;;25.20;;
13079;SDS011;6606;49.154;9.280;2023-03-02T03:30:00;40.77;;;25.30;;
13079;SDS011;6606;49.154;9.280;2023-03-02T03:32:49;38.60;;;24.97;;
13079;SDS011;6606;49.154;9.280;2023-03-02T03:35:32;38.37;;;24.10;;
13079;SDS011;6606;49.154;9.280;2023-03-02T03:38:16;41.60;;;25.70;;
13079;SDS011;6606;49.154;9.280;2023-03-02T03:41:00;42.67;;;25.93;;
13079;SDS011;6606;49.154;9.280;2023-03-02T03:43:43;41.60;;;25.73;;
13079;SDS011;6606;49.154;9.280;2023-03-02T03:46:26;40.27;;;25.63;;
13079;SDS011;6606;49.154;9.280;2023-03-02T03:49:11;41.53;;;27.00;;
13079;SDS011;6606;49.154;9.280;2023-03-02T03:51:53;40.33;;;24.37;;
13079;SDS011;6606;49.154;9.280;2023-03-02T03:54:37;40.07;;;25.37;;
13079;SDS011;6606;49.154;9.280;2023-03-02T03:57:21;42.03;;;24.27;;
13079;SDS011;6606;49.154;9.280;2023-03-02T04:00:06;41.67;;;25.13;;
13079;SDS011;6606;49.154;9.280;2023-03-02T04:03:02;41.40;;;24.37;;
13079;SDS011;6606;49.154;9.280;2023-03-02T04:05:48;43.10;;;27.07;;
13079;SDS011;6606;49.154;9.280;2023-03-02T04:08:31;40.80;;;25.17;;
13079;SDS011;6606;49.154;9.280;2023-03-02T04:11:15;40.77;;;26.63;;
13079;SDS011;6606;49.154;9.280;2023-03-02T04:13:59;43.40;;;25.10;;
13079;SDS011;6606;49.154;9.280;2023-03-02T04:16:42;40.07;;;25.27;;
13079;SDS011;6606;49.154;9.280;2023-03-02T04:19:26;39.57;;;25.23;;
13079;SDS011;6606;49.154;9.280;2023-03-02T04:22:20;38.67;;;24.23;;
13079;SDS011;6606;49.154;9.280;2023-03-02T04:25:05;38.83;;;24.33;;
13079;SDS011;6606;49.154;9.280;2023-03-02T04:27:49;37.80;;;24.13;;
13079;SDS011;6606;49.154;9.280;2023-03-02T04:30:33;38.53;;;23.57;;
13079;SDS011;6606;49.154;9.280;2023-03-02T04:33:16;38.33;;;24.10;;
13079;SDS011;6606;49.154;9.280;2023-03-02T04:35:59;39.83;;;24.23;;
13079;SDS011;6606;49.154;9.280;2023-03-02T04:38:50;38.63;;;24.10;;
13079;SDS011;6606;49.154;9.280;2023-03-02T04:41:33;39.67;;;23.37;;
13079;SDS011;6606;49.154;9.280;2023-03-02T04:44:16;35.93;;;22.97;;
13079;SDS011;6606;49.154;9.280;2023-03-02T04:50:05;44.10;;;27.33;;
13079;SDS011;6606;49.154;9.280;2023-03-02T04:52:49;41.57;;;24.93;;
13079;SDS011;6606;49.154;9.280;2023-03-02T04:55:34;40.93;;;24.00;;
13079;SDS011;6606;49.154;9.280;2023-03-02T04:58:16;41.57;;;25.37;;
13079;SDS011;6606;49.154;9.280;2023-03-02T05:00:59;39.83;;;25.27;;
13079;SDS011;6606;49.154;9.280;2023-03-02T05:03:42;35.13;;;23.67;;
13079;SDS011;6606;49.154;9.280;2023-03-02T05:06:26;45.57;;;26.83;;
13079;SDS011;6606;49.154;9.280;2023-03-02T05:09:08;41.97;;;26.67;;
13079;SDS011;6606;49.154;9.280;2023-03-02T05:11:53;43.20;;;26.00;;
13079;SDS011;6606;49.154;9.280;2023-03-02T05:14:36;43.03;;;25.30;;
13079;SDS011;6606;49.154;9.280;2023-03-02T05:17:34;38.60;;;25.60;;
13079;SDS011;6606;49.154;9.280;2023-03-02T05:20:17;40.00;;;25.20;;
13079;SDS011;6606;49.154;9.280;2023-03-02T05:23:00;39.83;;;24.70;;
13079;SDS011;6606;49.154;9.280;2023-03-02T05:25:43;41.23;;;24.77;;
13079;SDS011;6606;49.154;9.280;2023-03-02T05:28:26;40.93;;;25.47;;
13079;SDS011;6606;49.154;9.280;2023-03-02T05:31:10;41.93;;;25.47;;
13079;SDS011;6606;49.154;9.280;2023-03-02T05:37:46;41.97;;;25.43;;
13079;SDS011;6606;49.154;9.280;2023-03-02T05:40:30;43.40;;;27.20;;
13079;SDS011;6606;49.154;9.280;2023-03-02T05:43:14;41.10;;;24.03;;
13079;SDS011;6606;49.154;9.280;2023-03-02T05:46:00;36.70;;;23.53;;
13079;SDS011;6606;49.154;9.280;2023-03-02T05:48:42;42.57;;;25.57;;
13079;SDS011;6606;49.154;9.280;2023-03-02T05:51:24;39.97;;;24.83;;
13079;SDS011;6606;49.154;9.280;2023-03-02T05:54:06;38.87;;;24.27;;
13079;SDS011;6606;49.154;9.280;2023-03-02T05:56:48;39.40;;;24.07;;
13079;SDS011;6606;49.154;9.280;2023-03-02T05:59:29;37.10;;;23.77;;
13079;SDS011;6606;49.154;9.280;2023-03-02T06:02:13;42.73;;;25.87;;
13079;SDS011;6606;49.154;9.280;2023-03-02T06:04:54;39.87;;;23.50;;
13079;SDS011;6606;49.154;9.280;2023-03-02T06:07:36;42.93;;;26.00;;
13079;SDS011;6606;49.154;9.280;2023-03-02T06:10:18;41.07;;;25.03;;
13079;SDS011;6606;49.154;9.280;2023-03-02T06:13:00;38.67;;;24.13;;
13079;SDS011;6606;49.154;9.280;2023-03-02T06:15:42;43.83;;;24.87;;
13079;SDS011;6606;49.154;9.280;2023-03-02T06:18:25;41.60;;;24.67;;
13079;SDS011;6606;49.154;9.280;2023-03-02T06:21:07;45.30;;;24.87;;
13079;SDS011;6606;49.154;9.280;2023-03-02T06:23:48;45.03;;;26.20;;
13079;SDS011;6606;49.154;9.280;2023-03-02T06:26:30;42.93;;;26.33;;
13079;SDS011;6606;49.154;9.280;2023-03-02T06:29:14;47.37;;;27.57;;
13079;SDS011;6606;49.154;9.280;2023-03-02T06:31:56;43.03;;;24.47;;
13079;SDS011;6606;49.154;9.280;2023-03-02T06:34:39;42.63;;;26.00;;
13079;SDS011;6606;49.154;9.280;2023-03-02T06:37:21;41.80;;;25.63;;
13079;SDS011;6606;49.154;9.280;2023-03-02T06:40:03;41.77;;;24.90;;
13079;SDS011;6606;49.154;9.280;2023-03-02T06:42:47;44.33;;;25.40;;
13079;SDS011;6606;49.154;9.280;2023-03-02T06:45:29;40.90;;;25.53;;
13079;SDS011;6606;49.154;9.280;2023-03-02T06:48:12;44.77;;;25.53;;
13079;SDS011;6606;49.154;9.280;2023-03-02T06:50:56;37.53;;;23.30;;
13079;SDS011;6606;49.154;9.280;2023-03-02T06:53:38;41.17;;;25.93;;
13079;SDS011;6606;49.154;9.280;2023-03-02T06:56:19;47.17;;;26.17;;
13079;SDS011;6606;49.154;9.280;2023-03-02T06:59:01;44.60;;;25.17;;
13079;SDS011;6606;49.154;9.280;2023-03-02T07:01:43;44.33;;;25.57;;
13079;SDS011;6606;49.154;9.280;2023-03-02T07:04:26;37.67;;;24.30;;
13079;SDS011;6606;49.154;9.280;2023-03-02T07:07:10;46.90;;;26.30;;
13079;SDS011;6606;49.154;9.280;2023-03-02T07:09:52;39.93;;;24.97;;
13079;SDS011;6606;49.154;9.280;2023-03-02T07:12:37;39.83;;;24.00;;
13079;SDS011;6606;49.154;9.280;2023-03-02T07:15:18;43.57;;;26.30;;
13079;SDS011;6606;49.154;9.280;2023-03-02T07:18:01;44.10;;;26.63;;
13079;SDS011;6606;49.154;9.280;2023-03-02T07:20:43;44.60;;;26.17;;
13079;SDS011;6606;49.154;9.280;2023-03-02T07:23:26;41.80;;;27.63;;
13079;SDS011;6606;49.154;9.280;2023-03-02T07:26:07;42.07;;;26.00;;
13079;SDS011;6606;49.154;9.280;2023-03-02T07:28:49;40.30;;;24.63;;
13079;SDS011;6606;49.154;9.280;2023-03-02T07:31:31;37.43;;;23.37;;
13079;SDS011;6606;49.154;9.280;2023-03-02T07:34:12;31.27;;;21.40;;
13079;SDS011;6606;49.154;9.280;2023-03-02T07:36:55;37.00;;;22.47;;
13079;SDS011;6606;49.154;9.280;2023-03-02T07:39:38;32.93;;;21.63;;
13079;SDS011;6606;49.154;9.280;2023-03-02T07:42:20;33.80;;;21.13;;
13079;SDS011;6606;49.154;9.280;2023-03-02T07:45:06;30.27;;;20.27;;
13079;SDS011;6606;49.154;9.280;2023-03-02T07:47:49;31.73;;;21.53;;
13079;SDS011;6606;49.154;9.280;2023-03-02T07:50:31;27.33;;;19.40;;
13079;SDS011;6606;49.154;9.280;2023-03-02T07:53:13;29.63;;;20.27;;
13079;SDS011;6606;49.154;9.280;2023-03-02T07:55:56;31.93;;;21.00;;
13079;SDS011;6606;49.154;9.280;2023-03-02T07:58:40;29.00;;;20.47;;
13079;SDS011;6606;49.154;9.280;2023-03-02T08:01:22;28.90;;;20.03;;
13079;SDS011;6606;49.154;9.280;2023-03-02T08:04:04;29.70;;;20.13;;
13079;SDS011;6606;49.154;9.280;2023-03-02T08:06:45;31.70;;;20.80;;
13079;SDS011;6606;49.154;9.280;2023-03-02T08:09:27;32.83;;;20.53;;
13079;SDS011;6606;49.154;9.280;2023-03-02T08:12:10;31.67;;;20.10;;
13079;SDS011;6606;49.154;9.280;2023-03-02T08:14:52;28.43;;;20.67;;
13079;SDS011;6606;49.154;9.280;2023-03-02T08:17:34;29.37;;;20.77;;
13079;SDS011;6606;49.154;9.280;2023-03-02T08:20:16;31.10;;;21.07;;
13079;SDS011;6606;49.154;9.280;2023-03-02T08:22:58;31.17;;;20.57;;
13079;SDS011;6606;49.154;9.280;2023-03-02T08:25:40;32.70;;;19.83;;
13079;SDS011;6606;49.154;9.280;2023-03-02T08:28:24;34.10;;;19.87;;
13079;SDS011;6606;49.154;9.280;2023-03-02T08:31:06;32.80;;;20.60;;
13079;SDS011;6606;49.154;9.280;2023-03-02T08:33:49;32.13;;;21.50;;
13079;SDS011;6606;49.154;9.280;2023-03-02T08:36:49;28.73;;;19.93;;
13079;SDS011;6606;49.154;9.280;2023-03-02T08:39:32;29.27;;;19.27;;
13079;SDS011;6606;49.154;9.280;2023-03-02T08:42:13;28.77;;;19.27;;
13079;SDS011;6606;49.154;9.280;2023-03-02T08:44:57;27.47;;;19.13;;
13079;SDS011;6606;49.154;9.280;2023-03-02T08:47:39;30.00;;;20.03;;
13079;SDS011;6606;49.154;9.280;2023-03-02T08:50:21;29.23;;;19.30;;
13079;SDS011;6606;49.154;9.280;2023-03-02T08:53:02;29.80;;;19.43;;
13079;SDS011;6606;49.154;9.280;2023-03-02T08:55:44;31.00;;;19.40;;
13079;SDS011;6606;49.154;9.280;2023-03-02T08:58:26;28.93;;;18.43;;
13079;SDS011;6606;49.154;9.280;2023-03-02T09:01:13;28.00;;;18.33;;
13079;SDS011;6606;49.154;9.280;2023-03-02T09:03:55;31.40;;;19.57;;
13079;SDS011;6606;49.154;9.280;2023-03-02T09:06:39;25.40;;;17.57;;
13079;SDS011;6606;49.154;9.280;2023-03-02T09:09:22;37.90;;;18.40;;
13079;SDS011;6606;49.154;9.280;2023-03-02T09:12:04;27.07;;;18.60;;
13079;SDS011;6606;49.154;9.280;2023-03-02T09:14:46;28.53;;;18.33;;
13079;SDS011;6606;49.154;9.280;2023-03-02T09:17:29;27.13;;;19.20;;
13079;SDS011;6606;49.154;9.280;2023-03-02T09:20:11;28.40;;;18.57;;
13079;SDS011;6606;49.154;9.280;2023-03-02T09:22:53;29.37;;;18.50;;
13079;SDS011;6606;49.154;9.280;2023-03-02T09:25:35;29.77;;;17.80;;
13079;SDS011;6606;49.154;9.280;2023-03-02T09:28:16;28.10;;;18.17;;
13079;SDS011;6606;49.154;9.280;2023-03-02T09:31:00;28.80;;;18.27;;
13079;SDS011;6606;49.154;9.280;2023-03-02T09:33:44;23.87;;;17.60;;
13079;SDS011;6606;49.154;9.280;2023-03-02T09:36:25;33.27;;;18.33;;
13079;SDS011;6606;49.154;9.280;2023-03-02T09:39:07;23.43;;;16.87;;
13079;SDS011;6606;49.154;9.280;2023-03-02T09:42:07;26.03;;;17.50;;
13079;SDS011;6606;49.154;9.280;2023-03-02T09:45:02;22.50;;;16.63;;
13079;SDS011;6606;49.154;9.280;2023-03-02T09:47:59;25.83;;;17.50;;
13079;SDS011;6606;49.154;9.280;2023-03-02T09:50:54;24.20;;;17.37;;
13079;SDS011;6606;49.154;9.280;2023-03-02T09:53:50;27.87;;;17.27;;
13079;SDS011;6606;49.154;9.280;2023-03-02T09:56:41;25.77;;;16.90;;
13079;SDS011;6606;49.154;9.280;2023-03-02T09:59:26;24.87;;;17.03;;
13079;SDS011;6606;49.154;9.280;2023-03-02T10:02:18;25.70;;;16.07;;
13079;SDS011;6606;49.154;9.280;2023-03-02T10:05:05;26.27;;;16.87;;
13079;SDS011;6606;49.154;9.280;2023-03-02T10:07:54;24.07;;;17.20;;
13079;SDS011;6606;49.154;9.280;2023-03-02T10:10:38;25.17;;;17.13;;
13079;SDS011;6606;49.154;9.280;2023-03-02T10:13:24;23.63;;;16.40;;
13079;SDS011;6606;49.154;9.280;2023-03-02T10:16:11;22.60;;;16.50;;
13079;SDS011;6606;49.154;9.280;2023-03-02T10:19:03;23.13;;;16.23;;
13079;SDS011;6606;49.154;9.280;2023-03-02T10:21:50;37.47;;;17.60;;
13079;SDS011;6606;49.154;9.280;2023-03-02T10:24:38;23.67;;;16.07;;
13079;SDS011;6606;49.154;9.280;2023-03-02T10:27:28;27.23;;;16.67;;
13079;SDS011;6606;49.154;9.280;2023-03-02T10:30:18;24.60;;;16.17;;
13079;SDS011;6606;49.154;9.280;2023-03-02T10:33:07;25.43;;;16.23;;
13079;SDS011;6606;49.154;9.280;2023-03-02T10:35:53;22.17;;;15.83;;
13079;SDS011;6606;49.154;9.280;2023-03-02T10:38:35;23.87;;;16.33;;
13079;SDS011;6606;49.154;9.280;2023-03-02T10:41:20;26.47;;;16.47;;
13079;SDS011;6606;49.154;9.280;2023-03-02T10:44:06;23.60;;;16.00;;
13079;SDS011;6606;49.154;9.280;2023-03-02T10:46:58;29.80;;;16.17;;
13079;SDS011;6606;49.154;9.280;2023-03-02T10:49:41;24.67;;;16.37;;
13079;SDS011;6606;49.154;9.280;2023-03-02T10:52:23;23.57;;;16.40;;
13079;SDS011;6606;49.154;9.280;2023-03-02T10:55:12;21.47;;;15.33;;
13079;SDS011;6606;49.154;9.280;2023-03-02T10:57:59;20.50;;;15.50;;
13079;SDS011;6606;49.154;9.280;2023-03-02T11:00:42;20.40;;;15.13;;
13079;SDS011;6606;49.154;9.280;2023-03-02T11:03:24;21.77;;;15.87;;
13079;SDS011;6606;49.154;9.280;2023-03-02T11:06:10;22.73;;;15.90;;
13079;SDS011;6606;49.154;9.280;2023-03-02T11:08:59;24.73;;;15.43;;
13079;SDS011;6606;49.154;9.280;2023-03-02T11:11:47;20.03;;;15.30;;
13079;SDS011;6606;49.154;9.280;2023-03-02T11:14:35;22.77;;;15.90;;
13079;SDS011;6606;49.154;9.280;2023-03-02T11:17:28;20.03;;;14.10;;
13079;SDS011;6606;49.154;9.280;2023-03-02T11:20:13;21.80;;;16.50;;
13079;SDS011;6606;49.154;9.280;2023-03-02T11:22:59;19.13;;;15.20;;
13079;SDS011;6606;49.154;9.280;2023-03-02T11:25:49;23.87;;;15.57;;
13079;SDS011;6606;49.154;9.280;2023-03-02T11:34:57;22.70;;;15.13;;
13079;SDS011;6606;49.154;9.280;2023-03-02T11:37:49;25.53;;;17.53;;
13079;SDS011;6606;49.154;9.280;2023-03-02T11:40:35;23.13;;;15.70;;
13079;SDS011;6606;49.154;9.280;2023-03-02T11:43:22;24.53;;;15.87;;
13079;SDS011;6606;49.154;9.280;2023-03-02T11:46:05;23.87;;;15.43;;
13079;SDS011;6606;49.154;9.280;2023-03-02T11:48:56;21.83;;;14.47;;
13079;SDS011;6606;49.154;9.280;2023-03-02T11:54:45;25.73;;;15.30;;
13079;SDS011;6606;49.154;9.280;2023-03-02T11:57:34;18.27;;;14.07;;
13079;SDS011;6606;49.154;9.280;2023-03-02T12:00:26;21.77;;;15.13;;
13079;SDS011;6606;49.154;9.280;2023-03-02T12:03:37;22.77;;;15.10;;
13079;SDS011;6606;49.154;9.280;2023-03-02T12:06:26;21.53;;;14.67;;
13079;SDS011;6606;49.154;9.280;2023-03-02T12:09:26;20.83;;;14.20;;
13079;SDS011;6606;49.154;9.280;2023-03-02T12:12:30;21.80;;;14.83;;
13079;SDS011;6606;49.154;9.280;2023-03-02T12:15:34;19.13;;;14.53;;
13079;SDS011;6606;49.154;9.280;2023-03-02T12:18:39;18.90;;;13.73;;
13079;SDS011;6606;49.154;9.280;2023-03-02T12:21:28;21.37;;;14.70;;
13079;SDS011;6606;49.154;9.280;2023-03-02T12:24:42;19.87;;;13.73;;
13079;SDS011;6606;49.154;9.280;2023-03-02T12:27:25;18.67;;;13.70;;
13079;SDS011;6606;49.154;9.280;2023-03-02T12:30:24;29.37;;;21.83;;
13079;SDS011;6606;49.154;9.280;2023-03-02T12:33:15;19.20;;;14.07;;
13079;SDS011;6606;49.154;9.280;2023-03-02T12:36:02;27.23;;;18.43;;
13079;SDS011;6606;49.154;9.280;2023-03-02T12:38:56;21.93;;;14.67;;
13079;SDS011;6606;49.154;9.280;2023-03-02T12:42:08;23.00;;;14.80;;
13079;SDS011;6606;49.154;9.280;2023-03-02T12:45:13;20.17;;;14.17;;
13079;SDS011;6606;49.154;9.280;2023-03-02T12:48:14;22.53;;;15.00;;
13079;SDS011;6606;49.154;9.280;2023-03-02T12:51:06;22.07;;;14.43;;
13079;SDS011;6606;49.154;9.280;2023-03-02T12:54:05;20.07;;;14.53;;
13079;SDS011;6606;49.154;9.280;2023-03-02T12:57:06;21.57;;;14.90;;
13079;SDS011;6606;49.154;9.280;2023-03-02T12:59:59;21.40;;;15.27;;
13079;SDS011;6606;49.154;9.280;2023-03-02T13:02:43;25.23;;;14.43;;
13079;SDS011;6606;49.154;9.280;2023-03-02T13:05:27;23.03;;;14.00;;
13079;SDS011;6606;49.154;9.280;2023-03-02T13:08:12;21.13;;;14.53;;
13079;SDS011;6606;49.154;9.280;2023-03-02T13:11:00;18.80;;;13.97;;
13079;SDS011;6606;49.154;9.280;2023-03-02T13:13:43;20.53;;;14.80;;
13079;SDS011;6606;49.154;9.280;2023-03-02T13:16:28;19.57;;;14.67;;
13079;SDS011;6606;49.154;9.280;2023-03-02T13:19:11;20.73;;;14.47;;
13079;SDS011;6606;49.154;9.280;2023-03-02T13:21:57;20.57;;;14.47;;
13079;SDS011;6606;49.154;9.280;2023-03-02T13:24:44;18.37;;;14.57;;
13079;SDS011;6606;49.154;9.280;2023-03-02T13:27:30;19.43;;;14.80;;
13079;SDS011;6606;49.154;9.280;2023-03-02T13:30:20;20.63;;;14.40;;
13079;SDS011;6606;49.154;9.280;2023-03-02T13:33:22;19.30;;;14.27;;
13079;SDS011;6606;49.154;9.280;2023-03-02T13:36:07;21.40;;;14.20;;
13079;SDS011;6606;49.154;9.280;2023-03-02T13:38:50;19.90;;;14.83;;
13079;SDS011;6606;49.154;9.280;2023-03-02T13:41:35;18.97;;;13.63;;
13079;SDS011;6606;49.154;9.280;2023-03-02T13:44:25;16.57;;;12.73;;
13079;SDS011;6606;49.154;9.280;2023-03-02T13:47:16;18.60;;;14.27;;
13079;SDS011;6606;49.154;9.280;2023-03-02T13:50:05;21.53;;;14.00;;
13079;SDS011;6606;49.154;9.280;2023-03-02T13:52:47;17.60;;;13.17;;
13079;SDS011;6606;49.154;9.280;2023-03-02T13:55:30;29.90;;;14.37;;
13079;SDS011;6606;49.154;9.280;2023-03-02T13:58:13;19.50;;;13.70;;
13079;SDS011;6606;49.154;9.280;2023-03-02T14:00:59;19.50;;;13.70;;
13079;SDS011;6606;49.154;9.280;2023-03-02T14:03:41;20.43;;;13.40;;
13079;SDS011;6606;49.154;9.280;2023-03-02T14:06:22;18.93;;;13.70;;
13079;SDS011;6606;49.154;9.280;2023-03-02T14:09:04;21.87;;;13.30;;
13079;SDS011;6606;49.154;9.280;2023-03-02T14:11:47;17.30;;;12.50;;
13079;SDS011;6606;49.154;9.280;2023-03-02T14:14:32;20.70;;;13.07;;
13079;SDS011;6606;49.154;9.280;2023-03-02T14:17:20;17.73;;;13.53;;
13079;SDS011;6606;49.154;9.280;2023-03-02T14:20:09;19.90;;;12.80;;
13079;SDS011;6606;49.154;9.280;2023-03-02T14:22:53;20.60;;;12.50;;
13079;SDS011;6606;49.154;9.280;2023-03-02T14:25:35;20.90;;;12.83;;
13079;SDS011;6606;49.154;9.280;2023-03-02T14:28:17;20.83;;;12.73;;
13079;SDS011;6606;49.154;9.280;2023-03-02T14:31:04;20.50;;;13.20;;
13079;SDS011;6606;49.154;9.280;2023-03-02T14:33:47;18.33;;;12.77;;
13079;SDS011;6606;49.154;9.280;2023-03-02T14:36:30;17.33;;;13.17;;
13079;SDS011;6606;49.154;9.280;2023-03-02T14:39:17;19.80;;;12.47;;
13079;SDS011;6606;49.154;9.280;2023-03-02T14:42:02;19.33;;;12.73;;
13079;SDS011;6606;49.154;9.280;2023-03-02T14:44:45;21.57;;;14.00;;
13079;SDS011;6606;49.154;9.280;2023-03-02T14:47:28;18.57;;;13.50;;
13079;SDS011;6606;49.154;9.280;2023-03-02T14:50:12;17.67;;;12.90;;
13079;SDS011;6606;49.154;9.280;2023-03-02T14:52:55;19.63;;;13.03;;
13079;SDS011;6606;49.154;9.280;2023-03-02T14:55:38;19.70;;;13.40;;
13079;SDS011;6606;49.154;9.280;2023-03-02T14:58:24;21.43;;;13.83;;
13079;SDS011;6606;49.154;9.280;2023-03-02T15:01:10;20.90;;;12.37;;
13079;SDS011;6606;49.154;9.280;2023-03-02T15:03:52;19.80;;;12.33;;
13079;SDS011;6606;49.154;9.280;2023-03-02T15:06:36;18.57;;;12.60;;
13079;SDS011;6606;49.154;9.280;2023-03-02T15:09:19;17.73;;;12.43;;
13079;SDS011;6606;49.154;9.280;2023-03-02T15:12:01;18.13;;;13.30;;
13079;SDS011;6606;49.154;9.280;2023-03-02T15:14:42;21.93;;;13.07;;
13079;SDS011;6606;49.154;9.280;2023-03-02T15:17:24;19.67;;;13.00;;
13079;SDS011;6606;49.154;9.280;2023-03-02T15:20:07;17.20;;;12.30;;
13079;SDS011;6606;49.154;9.280;2023-03-02T15:22:55;20.37;;;12.80;;
13079;SDS011;6606;49.154;9.280;2023-03-02T15:25:37;19.30;;;12.27;;
13079;SDS011;6606;49.154;9.280;2023-03-02T15:28:18;19.00;;;12.50;;
13079;SDS011;6606;49.154;9.280;2023-03-02T15:31:04;18.20;;;12.10;;
13079;SDS011;6606;49.154;9.280;2023-03-02T15:33:47;19.00;;;12.73;;
13079;SDS011;6606;49.154;9.280;2023-03-02T15:36:31;18.20;;;12.70;;
13079;SDS011;6606;49.154;9.280;2023-03-02T15:39:14;16.37;;;12.10;;
13079;SDS011;6606;49.154;9.280;2023-03-02T15:41:56;17.90;;;11.90;;
13079;SDS011;6606;49.154;9.280;2023-03-02T15:44:38;18.73;;;11.73;;
13079;SDS011;6606;49.154;9.280;2023-03-02T15:47:20;21.23;;;12.67;;
13079;SDS011;6606;49.154;9.280;2023-03-02T15:50:02;17.13;;;11.70;;
13079;SDS011;6606;49.154;9.280;2023-03-02T15:52:44;19.43;;;11.90;;
13079;SDS011;6606;49.154;9.280;2023-03-02T15:55:27;15.67;;;11.17;;
13079;SDS011;6606;49.154;9.280;2023-03-02T15:58:09;16.90;;;11.67;;
13079;SDS011;6606;49.154;9.280;2023-03-02T16:00:50;15.40;;;11.93;;
13079;SDS011;6606;49.154;9.280;2023-03-02T16:03:33;15.87;;;11.20;;
13079;SDS011;6606;49.154;9.280;2023-03-02T16:06:15;17.40;;;11.10;;
13079;SDS011;6606;49.154;9.280;2023-03-02T16:08:56;19.97;;;10.93;;
13079;SDS011;6606;49.154;9.280;2023-03-02T16:11:40;16.70;;;10.93;;
13079;SDS011;6606;49.154;9.280;2023-03-02T16:14:21;18.07;;;11.30;;
13079;SDS011;6606;49.154;9.280;2023-03-02T16:17:03;16.83;;;11.73;;
13079;SDS011;6606;49.154;9.280;2023-03-02T16:19:45;18.30;;;11.00;;
13079;SDS011;6606;49.154;9.280;2023-03-02T16:22:27;17.20;;;10.30;;
13079;SDS011;6606;49.154;9.280;2023-03-02T16:25:09;15.93;;;10.30;;
13079;SDS011;6606;49.154;9.280;2023-03-02T16:27:53;17.77;;;11.13;;
13079;SDS011;6606;49.154;9.280;2023-03-02T16:30:34;17.67;;;11.17;;
13079;SDS011;6606;49.154;9.280;2023-03-02T16:33:17;22.23;;;10.73;;
13079;SDS011;6606;49.154;9.280;2023-03-02T16:35:59;14.70;;;9.83;;
13079;SDS011;6606;49.154;9.280;2023-03-02T16:38:40;17.33;;;10.07;;